sensor_id;sensor_type;location;lat;lon;timestamp;P1;durP1;ratioP1;P2;durP2;ratioP2
31210;SDS011;17836;50.948;3.946;2023-04-24T00:01:30;22.60;;;15.40;;
31210;SDS011;17836;50.948;3.946;2023-04-24T00:03:56;19.55;;;14.63;;
31210;SDS011;17836;50.948;3.946;2023-04-24T00:06:25;27.00;;;15.82;;
31210;SDS011;17836;50.948;3.946;2023-04-24T00:08:57;23.65;;;14.38;;
31210;SDS011;17836;50.948;3.946;2023-04-24T00:11:23;25.17;;;15.02;;
31210;SDS011;17836;50.948;3.946;2023-04-24T00:13:48;21.60;;;14.68;;
31210;SDS011;17836;50.948;3.946;2023-04-24T00:16:18;23.40;;;15.77;;
31210;SDS011;17836;50.948;3.946;2023-04-24T00:18:43;21.98;;;14.65;;
31210;SDS011;17836;50.948;3.946;2023-04-24T00:21:10;21.85;;;15.48;;
31210;SDS011;17836;50.948;3.946;2023-04-24T00:23:35;19.08;;;15.30;;
31210;SDS011;17836;50.948;3.946;2023-04-24T00:26:00;22.15;;;15.00;;
31210;SDS011;17836;50.948;3.946;2023-04-24T00:28:26;18.57;;;14.73;;
31210;SDS011;17836;50.948;3.946;2023-04-24T00:30:51;22.07;;;14.77;;
31210;SDS011;17836;50.948;3.946;2023-04-24T00:33:16;23.60;;;14.98;;
31210;SDS011;17836;50.948;3.946;2023-04-24T00:35:41;27.23;;;14.70;;
31210;SDS011;17836;50.948;3.946;2023-04-24T00:38:07;22.00;;;15.55;;
31210;SDS011;17836;50.948;3.946;2023-04-24T00:40:32;22.37;;;14.87;;
31210;SDS011;17836;50.948;3.946;2023-04-24T00:42:57;17.73;;;14.60;;
31210;SDS011;17836;50.948;3.946;2023-04-24T00:45:22;16.10;;;14.53;;
31210;SDS011;17836;50.948;3.946;2023-04-24T00:47:48;16.97;;;13.83;;
31210;SDS011;17836;50.948;3.946;2023-04-24T00:50:14;26.27;;;15.70;;
31210;SDS011;17836;50.948;3.946;2023-04-24T00:52:40;24.10;;;13.65;;
31210;SDS011;17836;50.948;3.946;2023-04-24T00:55:06;22.80;;;13.55;;
31210;SDS011;17836;50.948;3.946;2023-04-24T00:57:32;23.77;;;14.32;;
31210;SDS011;17836;50.948;3.946;2023-04-24T00:59:57;23.02;;;14.15;;
31210;SDS011;17836;50.948;3.946;2023-04-24T01:02:25;23.65;;;14.38;;
31210;SDS011;17836;50.948;3.946;2023-04-24T01:04:51;19.48;;;13.77;;
31210;SDS011;17836;50.948;3.946;2023-04-24T01:07:18;27.88;;;14.40;;
31210;SDS011;17836;50.948;3.946;2023-04-24T01:09:46;15.45;;;12.18;;
31210;SDS011;17836;50.948;3.946;2023-04-24T01:12:13;18.45;;;11.48;;
31210;SDS011;17836;50.948;3.946;2023-04-24T01:14:39;13.23;;;10.57;;
31210;SDS011;17836;50.948;3.946;2023-04-24T01:17:04;13.45;;;11.20;;
31210;SDS011;17836;50.948;3.946;2023-04-24T01:19:30;14.30;;;10.55;;
31210;SDS011;17836;50.948;3.946;2023-04-24T01:21:57;11.00;;;9.25;;
31210;SDS011;17836;50.948;3.946;2023-04-24T01:24:23;11.43;;;9.55;;
31210;SDS011;17836;50.948;3.946;2023-04-24T01:26:48;10.73;;;8.70;;
31210;SDS011;17836;50.948;3.946;2023-04-24T01:29:13;13.57;;;9.50;;
31210;SDS011;17836;50.948;3.946;2023-04-24T01:31:39;10.70;;;8.18;;
31210;SDS011;17836;50.948;3.946;2023-04-24T01:34:04;10.95;;;8.63;;
31210;SDS011;17836;50.948;3.946;2023-04-24T01:36:30;8.48;;;7.60;;
31210;SDS011;17836;50.948;3.946;2023-04-24T01:38:57;11.82;;;7.97;;
31210;SDS011;17836;50.948;3.946;2023-04-24T01:41:22;7.53;;;6.70;;
31210;SDS011;17836;50.948;3.946;2023-04-24T01:43:48;7.55;;;6.85;;
31210;SDS011;17836;50.948;3.946;2023-04-24T01:46:13;9.98;;;8.80;;
31210;SDS011;17836;50.948;3.946;2023-04-24T01:48:39;10.07;;;9.07;;
31210;SDS011;17836;50.948;3.946;2023-04-24T01:51:04;13.98;;;10.35;;
31210;SDS011;17836;50.948;3.946;2023-04-24T01:53:30;11.43;;;9.33;;
31210;SDS011;17836;50.948;3.946;2023-04-24T01:55:55;12.90;;;10.37;;
31210;SDS011;17836;50.948;3.946;2023-04-24T01:58:20;13.32;;;11.02;;
31210;SDS011;17836;50.948;3.946;2023-04-24T02:00:46;15.45;;;11.50;;
31210;SDS011;17836;50.948;3.946;2023-04-24T02:03:11;14.05;;;12.15;;
31210;SDS011;17836;50.948;3.946;2023-04-24T02:05:39;18.40;;;13.07;;
31210;SDS011;17836;50.948;3.946;2023-04-24T02:08:04;17.05;;;13.35;;
31210;SDS011;17836;50.948;3.946;2023-04-24T02:10:29;13.70;;;12.30;;
31210;SDS011;17836;50.948;3.946;2023-04-24T02:12:55;16.38;;;12.93;;
31210;SDS011;17836;50.948;3.946;2023-04-24T02:15:20;17.10;;;13.50;;
31210;SDS011;17836;50.948;3.946;2023-04-24T02:17:46;16.45;;;14.45;;
31210;SDS011;17836;50.948;3.946;2023-04-24T02:20:13;18.40;;;13.77;;
31210;SDS011;17836;50.948;3.946;2023-04-24T02:22:38;16.60;;;13.50;;
31210;SDS011;17836;50.948;3.946;2023-04-24T02:25:04;20.20;;;14.90;;
31210;SDS011;17836;50.948;3.946;2023-04-24T02:27:30;16.27;;;14.32;;
31210;SDS011;17836;50.948;3.946;2023-04-24T02:29:58;24.27;;;14.55;;
31210;SDS011;17836;50.948;3.946;2023-04-24T02:32:25;14.85;;;13.25;;
31210;SDS011;17836;50.948;3.946;2023-04-24T02:34:50;17.88;;;13.88;;
31210;SDS011;17836;50.948;3.946;2023-04-24T02:37:16;15.05;;;11.95;;
31210;SDS011;17836;50.948;3.946;2023-04-24T02:39:41;13.77;;;12.00;;
31210;SDS011;17836;50.948;3.946;2023-04-24T02:42:06;12.93;;;11.20;;
31210;SDS011;17836;50.948;3.946;2023-04-24T02:44:33;18.60;;;12.30;;
31210;SDS011;17836;50.948;3.946;2023-04-24T02:46:58;12.48;;;11.27;;
31210;SDS011;17836;50.948;3.946;2023-04-24T02:49:23;14.35;;;12.45;;
31210;SDS011;17836;50.948;3.946;2023-04-24T02:51:51;14.35;;;11.32;;
31210;SDS011;17836;50.948;3.946;2023-04-24T02:54:18;17.63;;;13.13;;
31210;SDS011;17836;50.948;3.946;2023-04-24T02:56:46;13.30;;;11.53;;
31210;SDS011;17836;50.948;3.946;2023-04-24T02:59:11;13.50;;;10.93;;
31210;SDS011;17836;50.948;3.946;2023-04-24T03:01:36;13.05;;;11.18;;
31210;SDS011;17836;50.948;3.946;2023-04-24T03:04:01;11.10;;;10.00;;
31210;SDS011;17836;50.948;3.946;2023-04-24T03:06:27;11.88;;;10.70;;
31210;SDS011;17836;50.948;3.946;2023-04-24T03:08:56;11.88;;;10.68;;
31210;SDS011;17836;50.948;3.946;2023-04-24T03:11:24;10.98;;;10.07;;
31210;SDS011;17836;50.948;3.946;2023-04-24T03:13:49;10.23;;;9.23;;
31210;SDS011;17836;50.948;3.946;2023-04-24T03:16:14;10.23;;;9.23;;
31210;SDS011;17836;50.948;3.946;2023-04-24T03:18:42;9.70;;;8.77;;
31210;SDS011;17836;50.948;3.946;2023-04-24T03:21:07;9.85;;;8.93;;
31210;SDS011;17836;50.948;3.946;2023-04-24T03:23:35;11.85;;;9.70;;
31210;SDS011;17836;50.948;3.946;2023-04-24T03:26:00;12.45;;;9.75;;
31210;SDS011;17836;50.948;3.946;2023-04-24T03:28:27;11.80;;;9.50;;
31210;SDS011;17836;50.948;3.946;2023-04-24T03:30:52;10.70;;;9.45;;
31210;SDS011;17836;50.948;3.946;2023-04-24T03:33:17;10.85;;;9.32;;
31210;SDS011;17836;50.948;3.946;2023-04-24T03:35:43;11.87;;;8.00;;
31210;SDS011;17836;50.948;3.946;2023-04-24T03:38:08;8.32;;;7.35;;
31210;SDS011;17836;50.948;3.946;2023-04-24T03:40:33;12.43;;;7.47;;
31210;SDS011;17836;50.948;3.946;2023-04-24T03:42:59;7.82;;;6.97;;
31210;SDS011;17836;50.948;3.946;2023-04-24T03:45:24;11.13;;;7.18;;
31210;SDS011;17836;50.948;3.946;2023-04-24T03:47:49;9.23;;;6.15;;
31210;SDS011;17836;50.948;3.946;2023-04-24T03:50:15;10.35;;;6.38;;
31210;SDS011;17836;50.948;3.946;2023-04-24T03:52:40;7.47;;;6.28;;
31210;SDS011;17836;50.948;3.946;2023-04-24T03:55:05;14.73;;;7.50;;
31210;SDS011;17836;50.948;3.946;2023-04-24T03:57:31;14.90;;;7.57;;
31210;SDS011;17836;50.948;3.946;2023-04-24T03:59:56;13.82;;;7.93;;
31210;SDS011;17836;50.948;3.946;2023-04-24T04:02:22;10.87;;;8.10;;
31210;SDS011;17836;50.948;3.946;2023-04-24T04:04:47;11.85;;;9.38;;
31210;SDS011;17836;50.948;3.946;2023-04-24T04:07:14;15.07;;;9.60;;
31210;SDS011;17836;50.948;3.946;2023-04-24T04:09:40;15.80;;;10.17;;
31210;SDS011;17836;50.948;3.946;2023-04-24T04:12:05;16.80;;;12.43;;
31210;SDS011;17836;50.948;3.946;2023-04-24T04:14:30;16.95;;;12.38;;
31210;SDS011;17836;50.948;3.946;2023-04-24T04:16:55;21.10;;;12.80;;
31210;SDS011;17836;50.948;3.946;2023-04-24T04:19:21;17.85;;;12.95;;
31210;SDS011;17836;50.948;3.946;2023-04-24T04:21:46;21.00;;;13.53;;
31210;SDS011;17836;50.948;3.946;2023-04-24T04:24:17;15.95;;;13.75;;
31210;SDS011;17836;50.948;3.946;2023-04-24T04:26:42;23.65;;;14.52;;
31210;SDS011;17836;50.948;3.946;2023-04-24T04:29:11;21.10;;;13.98;;
31210;SDS011;17836;50.948;3.946;2023-04-24T04:31:37;30.95;;;15.13;;
31210;SDS011;17836;50.948;3.946;2023-04-24T04:34:02;20.27;;;15.07;;
31210;SDS011;17836;50.948;3.946;2023-04-24T04:36:28;25.35;;;16.65;;
31210;SDS011;17836;50.948;3.946;2023-04-24T04:38:54;25.77;;;15.65;;
31210;SDS011;17836;50.948;3.946;2023-04-24T04:41:19;27.55;;;16.30;;
31210;SDS011;17836;50.948;3.946;2023-04-24T04:43:45;24.05;;;17.08;;
31210;SDS011;17836;50.948;3.946;2023-04-24T04:46:11;25.30;;;15.65;;
31210;SDS011;17836;50.948;3.946;2023-04-24T04:48:36;27.17;;;15.93;;
31210;SDS011;17836;50.948;3.946;2023-04-24T04:51:03;27.70;;;17.13;;
31210;SDS011;17836;50.948;3.946;2023-04-24T04:53:28;25.23;;;15.30;;
31210;SDS011;17836;50.948;3.946;2023-04-24T04:55:54;30.77;;;16.38;;
31210;SDS011;17836;50.948;3.946;2023-04-24T04:58:19;21.90;;;14.47;;
31210;SDS011;17836;50.948;3.946;2023-04-24T05:00:47;24.92;;;15.95;;
31210;SDS011;17836;50.948;3.946;2023-04-24T05:03:12;21.27;;;14.43;;
31210;SDS011;17836;50.948;3.946;2023-04-24T05:05:37;26.60;;;15.68;;
31210;SDS011;17836;50.948;3.946;2023-04-24T05:08:05;20.75;;;14.45;;
31210;SDS011;17836;50.948;3.946;2023-04-24T05:10:31;20.83;;;14.63;;
31210;SDS011;17836;50.948;3.946;2023-04-24T05:12:58;24.48;;;15.32;;
31210;SDS011;17836;50.948;3.946;2023-04-24T05:15:24;32.75;;;16.10;;
31210;SDS011;17836;50.948;3.946;2023-04-24T05:17:49;23.15;;;15.70;;
31210;SDS011;17836;50.948;3.946;2023-04-24T05:20:14;27.75;;;15.10;;
31210;SDS011;17836;50.948;3.946;2023-04-24T05:22:40;26.65;;;15.80;;
31210;SDS011;17836;50.948;3.946;2023-04-24T05:25:05;24.27;;;15.30;;
31210;SDS011;17836;50.948;3.946;2023-04-24T05:27:30;17.52;;;13.85;;
31210;SDS011;17836;50.948;3.946;2023-04-24T05:29:56;20.15;;;14.93;;
31210;SDS011;17836;50.948;3.946;2023-04-24T05:32:21;21.33;;;14.75;;
31210;SDS011;17836;50.948;3.946;2023-04-24T05:34:46;30.50;;;15.18;;
31210;SDS011;17836;50.948;3.946;2023-04-24T05:37:12;25.17;;;14.43;;
31210;SDS011;17836;50.948;3.946;2023-04-24T05:39:37;26.17;;;14.50;;
31210;SDS011;17836;50.948;3.946;2023-04-24T05:42:03;23.52;;;15.50;;
31210;SDS011;17836;50.948;3.946;2023-04-24T05:44:29;24.98;;;14.05;;
31210;SDS011;17836;50.948;3.946;2023-04-24T05:46:55;21.13;;;15.00;;
31210;SDS011;17836;50.948;3.946;2023-04-24T05:49:21;23.65;;;15.38;;
31210;SDS011;17836;50.948;3.946;2023-04-24T05:51:46;27.13;;;16.20;;
31210;SDS011;17836;50.948;3.946;2023-04-24T05:54:11;28.17;;;16.83;;
31210;SDS011;17836;50.948;3.946;2023-04-24T05:56:37;29.80;;;17.05;;
31210;SDS011;17836;50.948;3.946;2023-04-24T05:59:02;27.42;;;16.45;;
31210;SDS011;17836;50.948;3.946;2023-04-24T06:01:28;22.85;;;15.35;;
31210;SDS011;17836;50.948;3.946;2023-04-24T06:03:53;26.20;;;16.70;;
31210;SDS011;17836;50.948;3.946;2023-04-24T06:06:19;27.33;;;18.00;;
31210;SDS011;17836;50.948;3.946;2023-04-24T06:08:44;32.22;;;17.27;;
31210;SDS011;17836;50.948;3.946;2023-04-24T06:11:10;29.60;;;17.77;;
31210;SDS011;17836;50.948;3.946;2023-04-24T06:13:38;27.90;;;17.17;;
31210;SDS011;17836;50.948;3.946;2023-04-24T06:16:05;29.15;;;17.70;;
31210;SDS011;17836;50.948;3.946;2023-04-24T06:18:30;28.70;;;17.00;;
31210;SDS011;17836;50.948;3.946;2023-04-24T06:20:58;32.13;;;18.27;;
31210;SDS011;17836;50.948;3.946;2023-04-24T06:23:24;29.33;;;17.92;;
31210;SDS011;17836;50.948;3.946;2023-04-24T06:25:49;34.33;;;20.27;;
31210;SDS011;17836;50.948;3.946;2023-04-24T06:28:17;35.05;;;20.45;;
31210;SDS011;17836;50.948;3.946;2023-04-24T06:30:42;33.03;;;18.80;;
31210;SDS011;17836;50.948;3.946;2023-04-24T06:33:08;34.10;;;20.70;;
31210;SDS011;17836;50.948;3.946;2023-04-24T06:35:33;39.67;;;20.55;;
31210;SDS011;17836;50.948;3.946;2023-04-24T06:37:59;35.05;;;20.25;;
31210;SDS011;17836;50.948;3.946;2023-04-24T06:40:24;34.40;;;20.08;;
31210;SDS011;17836;50.948;3.946;2023-04-24T06:42:51;32.40;;;19.55;;
31210;SDS011;17836;50.948;3.946;2023-04-24T06:45:17;36.85;;;21.23;;
31210;SDS011;17836;50.948;3.946;2023-04-24T06:47:42;36.78;;;19.30;;
31210;SDS011;17836;50.948;3.946;2023-04-24T06:50:07;30.47;;;18.10;;
31210;SDS011;17836;50.948;3.946;2023-04-24T06:52:33;33.30;;;17.92;;
31210;SDS011;17836;50.948;3.946;2023-04-24T06:55:02;33.77;;;17.57;;
31210;SDS011;17836;50.948;3.946;2023-04-24T06:57:27;31.08;;;17.52;;
31210;SDS011;17836;50.948;3.946;2023-04-24T06:59:53;30.83;;;16.25;;
31210;SDS011;17836;50.948;3.946;2023-04-24T07:02:18;32.73;;;16.77;;
31210;SDS011;17836;50.948;3.946;2023-04-24T07:04:43;29.57;;;15.50;;
31210;SDS011;17836;50.948;3.946;2023-04-24T07:07:14;32.88;;;16.02;;
31210;SDS011;17836;50.948;3.946;2023-04-24T07:09:40;33.33;;;16.33;;
31210;SDS011;17836;50.948;3.946;2023-04-24T07:12:10;35.47;;;16.90;;
31210;SDS011;17836;50.948;3.946;2023-04-24T07:14:35;25.85;;;15.43;;
31210;SDS011;17836;50.948;3.946;2023-04-24T07:17:02;31.92;;;16.60;;
31210;SDS011;17836;50.948;3.946;2023-04-24T07:19:27;24.30;;;13.43;;
31210;SDS011;17836;50.948;3.946;2023-04-24T07:21:52;26.30;;;14.32;;
31210;SDS011;17836;50.948;3.946;2023-04-24T07:24:19;25.80;;;15.00;;
31210;SDS011;17836;50.948;3.946;2023-04-24T07:26:45;24.10;;;15.03;;
31210;SDS011;17836;50.948;3.946;2023-04-24T07:29:11;24.98;;;12.68;;
31210;SDS011;17836;50.948;3.946;2023-04-24T07:31:36;20.25;;;11.65;;
31210;SDS011;17836;50.948;3.946;2023-04-24T07:34:02;25.80;;;12.85;;
31210;SDS011;17836;50.948;3.946;2023-04-24T07:36:27;27.23;;;12.77;;
31210;SDS011;17836;50.948;3.946;2023-04-24T07:38:52;17.83;;;11.63;;
31210;SDS011;17836;50.948;3.946;2023-04-24T07:41:19;22.35;;;10.45;;
31210;SDS011;17836;50.948;3.946;2023-04-24T07:43:46;18.13;;;11.40;;
31210;SDS011;17836;50.948;3.946;2023-04-24T07:46:12;21.25;;;11.85;;
31210;SDS011;17836;50.948;3.946;2023-04-24T07:48:37;21.63;;;10.77;;
31210;SDS011;17836;50.948;3.946;2023-04-24T07:51:02;20.40;;;10.90;;
31210;SDS011;17836;50.948;3.946;2023-04-24T07:53:32;22.30;;;10.85;;
31210;SDS011;17836;50.948;3.946;2023-04-24T07:55:58;21.77;;;10.10;;
31210;SDS011;17836;50.948;3.946;2023-04-24T07:58:23;20.77;;;9.27;;
31210;SDS011;17836;50.948;3.946;2023-04-24T08:00:48;19.42;;;9.43;;
31210;SDS011;17836;50.948;3.946;2023-04-24T08:03:16;20.95;;;9.25;;
31210;SDS011;17836;50.948;3.946;2023-04-24T08:05:44;17.73;;;8.27;;
31210;SDS011;17836;50.948;3.946;2023-04-24T08:08:09;27.33;;;9.00;;
31210;SDS011;17836;50.948;3.946;2023-04-24T08:10:37;15.73;;;8.45;;
31210;SDS011;17836;50.948;3.946;2023-04-24T08:13:04;14.23;;;8.20;;
31210;SDS011;17836;50.948;3.946;2023-04-24T08:15:30;14.32;;;8.43;;
31210;SDS011;17836;50.948;3.946;2023-04-24T08:17:55;16.23;;;8.20;;
31210;SDS011;17836;50.948;3.946;2023-04-24T08:20:20;20.23;;;7.87;;
31210;SDS011;17836;50.948;3.946;2023-04-24T08:22:46;14.35;;;7.93;;
31210;SDS011;17836;50.948;3.946;2023-04-24T08:25:13;16.80;;;8.57;;
31210;SDS011;17836;50.948;3.946;2023-04-24T08:27:38;16.65;;;8.18;;
31210;SDS011;17836;50.948;3.946;2023-04-24T08:30:04;16.33;;;6.82;;
31210;SDS011;17836;50.948;3.946;2023-04-24T08:32:29;12.55;;;6.50;;
31210;SDS011;17836;50.948;3.946;2023-04-24T08:34:55;9.23;;;5.53;;
31210;SDS011;17836;50.948;3.946;2023-04-24T08:37:23;11.32;;;5.32;;
31210;SDS011;17836;50.948;3.946;2023-04-24T08:39:49;11.70;;;4.38;;
31210;SDS011;17836;50.948;3.946;2023-04-24T08:42:14;12.50;;;5.28;;
31210;SDS011;17836;50.948;3.946;2023-04-24T08:44:40;11.38;;;4.53;;
31210;SDS011;17836;50.948;3.946;2023-04-24T08:47:05;9.43;;;4.95;;
31210;SDS011;17836;50.948;3.946;2023-04-24T08:49:32;8.75;;;4.93;;
31210;SDS011;17836;50.948;3.946;2023-04-24T08:52:00;10.50;;;4.50;;
31210;SDS011;17836;50.948;3.946;2023-04-24T08:54:28;10.10;;;5.35;;
31210;SDS011;17836;50.948;3.946;2023-04-24T08:56:54;7.78;;;4.32;;
31210;SDS011;17836;50.948;3.946;2023-04-24T08:59:23;8.65;;;4.57;;
31210;SDS011;17836;50.948;3.946;2023-04-24T09:01:50;8.48;;;4.78;;
31210;SDS011;17836;50.948;3.946;2023-04-24T09:04:16;6.93;;;4.35;;
31210;SDS011;17836;50.948;3.946;2023-04-24T09:06:44;11.38;;;4.78;;
31210;SDS011;17836;50.948;3.946;2023-04-24T09:09:10;9.25;;;4.65;;
31210;SDS011;17836;50.948;3.946;2023-04-24T09:11:36;8.60;;;3.85;;
31210;SDS011;17836;50.948;3.946;2023-04-24T09:14:02;11.05;;;4.38;;
31210;SDS011;17836;50.948;3.946;2023-04-24T09:16:27;9.07;;;4.38;;
31210;SDS011;17836;50.948;3.946;2023-04-24T09:18:55;8.73;;;4.38;;
31210;SDS011;17836;50.948;3.946;2023-04-24T09:21:21;8.95;;;4.82;;
31210;SDS011;17836;50.948;3.946;2023-04-24T09:23:47;10.40;;;4.80;;
31210;SDS011;17836;50.948;3.946;2023-04-24T09:26:22;8.38;;;4.75;;
31210;SDS011;17836;50.948;3.946;2023-04-24T09:28:47;5.53;;;3.72;;
31210;SDS011;17836;50.948;3.946;2023-04-24T09:31:13;7.23;;;4.37;;
31210;SDS011;17836;50.948;3.946;2023-04-24T09:33:39;8.48;;;3.90;;
31210;SDS011;17836;50.948;3.946;2023-04-24T09:36:05;6.65;;;4.57;;
31210;SDS011;17836;50.948;3.946;2023-04-24T09:38:37;7.68;;;4.47;;
31210;SDS011;17836;50.948;3.946;2023-04-24T09:41:06;5.53;;;3.25;;
31210;SDS011;17836;50.948;3.946;2023-04-24T09:43:31;7.50;;;3.97;;
31210;SDS011;17836;50.948;3.946;2023-04-24T09:45:57;7.18;;;4.03;;
31210;SDS011;17836;50.948;3.946;2023-04-24T09:48:33;7.43;;;4.38;;
31210;SDS011;17836;50.948;3.946;2023-04-24T09:50:59;9.18;;;5.03;;
31210;SDS011;17836;50.948;3.946;2023-04-24T09:53:29;8.13;;;4.00;;
31210;SDS011;17836;50.948;3.946;2023-04-24T09:55:55;9.75;;;4.70;;
31210;SDS011;17836;50.948;3.946;2023-04-24T09:58:26;12.10;;;4.80;;
31210;SDS011;17836;50.948;3.946;2023-04-24T10:00:55;8.50;;;4.45;;
31210;SDS011;17836;50.948;3.946;2023-04-24T10:03:23;9.07;;;4.70;;
31210;SDS011;17836;50.948;3.946;2023-04-24T10:05:52;8.82;;;4.45;;
31210;SDS011;17836;50.948;3.946;2023-04-24T10:08:18;9.50;;;4.70;;
31210;SDS011;17836;50.948;3.946;2023-04-24T10:10:44;9.45;;;4.25;;
31210;SDS011;17836;50.948;3.946;2023-04-24T10:13:12;7.85;;;4.00;;
31210;SDS011;17836;50.948;3.946;2023-04-24T10:15:38;7.10;;;3.83;;
31210;SDS011;17836;50.948;3.946;2023-04-24T10:18:05;6.75;;;3.72;;
31210;SDS011;17836;50.948;3.946;2023-04-24T10:20:31;6.03;;;3.78;;
31210;SDS011;17836;50.948;3.946;2023-04-24T10:22:59;8.15;;;3.75;;
31210;SDS011;17836;50.948;3.946;2023-04-24T10:25:26;7.13;;;3.50;;
31210;SDS011;17836;50.948;3.946;2023-04-24T10:27:52;6.47;;;4.07;;
31210;SDS011;17836;50.948;3.946;2023-04-24T10:30:20;7.50;;;3.90;;
31210;SDS011;17836;50.948;3.946;2023-04-24T10:32:45;5.25;;;3.70;;
31210;SDS011;17836;50.948;3.946;2023-04-24T10:35:15;5.88;;;3.50;;
31210;SDS011;17836;50.948;3.946;2023-04-24T10:37:42;8.18;;;3.72;;
31210;SDS011;17836;50.948;3.946;2023-04-24T10:40:08;7.38;;;3.92;;
31210;SDS011;17836;50.948;3.946;2023-04-24T10:42:39;7.55;;;3.75;;
31210;SDS011;17836;50.948;3.946;2023-04-24T10:45:06;5.95;;;4.15;;
31210;SDS011;17836;50.948;3.946;2023-04-24T10:47:41;6.07;;;3.55;;
31210;SDS011;17836;50.948;3.946;2023-04-24T10:50:09;9.18;;;4.30;;
31210;SDS011;17836;50.948;3.946;2023-04-24T10:52:44;8.93;;;4.28;;
31210;SDS011;17836;50.948;3.946;2023-04-24T10:55:10;7.57;;;4.43;;
31210;SDS011;17836;50.948;3.946;2023-04-24T10:57:39;7.65;;;4.80;;
31210;SDS011;17836;50.948;3.946;2023-04-24T11:00:20;11.80;;;4.97;;
31210;SDS011;17836;50.948;3.946;2023-04-24T11:02:46;9.07;;;5.25;;
31210;SDS011;17836;50.948;3.946;2023-04-24T11:05:18;10.27;;;5.07;;
31210;SDS011;17836;50.948;3.946;2023-04-24T11:10:27;8.70;;;4.88;;
31210;SDS011;17836;50.948;3.946;2023-04-24T11:12:53;7.63;;;5.50;;
31210;SDS011;17836;50.948;3.946;2023-04-24T11:15:20;8.50;;;5.43;;
31210;SDS011;17836;50.948;3.946;2023-04-24T11:17:46;6.50;;;4.57;;
31210;SDS011;17836;50.948;3.946;2023-04-24T11:20:16;7.40;;;4.70;;
31210;SDS011;17836;50.948;3.946;2023-04-24T11:22:44;6.47;;;5.07;;
31210;SDS011;17836;50.948;3.946;2023-04-24T11:25:09;12.98;;;5.88;;
31210;SDS011;17836;50.948;3.946;2023-04-24T11:27:40;10.73;;;5.50;;
31210;SDS011;17836;50.948;3.946;2023-04-24T11:30:06;7.78;;;4.68;;
31210;SDS011;17836;50.948;3.946;2023-04-24T11:37:35;12.88;;;5.05;;
31210;SDS011;17836;50.948;3.946;2023-04-24T11:40:01;6.65;;;5.22;;
31210;SDS011;17836;50.948;3.946;2023-04-24T11:42:26;9.52;;;4.85;;
31210;SDS011;17836;50.948;3.946;2023-04-24T11:44:53;6.60;;;4.35;;
31210;SDS011;17836;50.948;3.946;2023-04-24T11:47:20;5.45;;;4.57;;
31210;SDS011;17836;50.948;3.946;2023-04-24T11:49:45;8.07;;;4.75;;
31210;SDS011;17836;50.948;3.946;2023-04-24T11:52:15;6.72;;;4.93;;
31210;SDS011;17836;50.948;3.946;2023-04-24T11:54:46;6.85;;;4.57;;
31210;SDS011;17836;50.948;3.946;2023-04-24T11:57:11;7.03;;;4.60;;
31210;SDS011;17836;50.948;3.946;2023-04-24T11:59:37;8.77;;;5.13;;
31210;SDS011;17836;50.948;3.946;2023-04-24T12:02:02;6.60;;;4.45;;
31210;SDS011;17836;50.948;3.946;2023-04-24T12:04:37;4.55;;;3.75;;
31210;SDS011;17836;50.948;3.946;2023-04-24T12:07:03;8.32;;;4.90;;
31210;SDS011;17836;50.948;3.946;2023-04-24T12:09:39;7.43;;;3.60;;
31210;SDS011;17836;50.948;3.946;2023-04-24T12:12:05;6.82;;;3.53;;
31210;SDS011;17836;50.948;3.946;2023-04-24T12:14:31;5.57;;;3.35;;
31210;SDS011;17836;50.948;3.946;2023-04-24T12:16:56;15.37;;;4.07;;
31210;SDS011;17836;50.948;3.946;2023-04-24T12:19:22;6.28;;;3.22;;
31210;SDS011;17836;50.948;3.946;2023-04-24T12:22:00;4.82;;;3.15;;
31210;SDS011;17836;50.948;3.946;2023-04-24T12:24:26;5.07;;;3.08;;
31210;SDS011;17836;50.948;3.946;2023-04-24T12:26:51;7.13;;;3.20;;
31210;SDS011;17836;50.948;3.946;2023-04-24T12:29:20;6.03;;;2.40;;
31210;SDS011;17836;50.948;3.946;2023-04-24T12:31:46;7.13;;;3.10;;
31210;SDS011;17836;50.948;3.946;2023-04-24T12:34:20;3.10;;;2.40;;
31210;SDS011;17836;50.948;3.946;2023-04-24T12:36:46;6.32;;;3.03;;
31210;SDS011;17836;50.948;3.946;2023-04-24T12:39:18;14.48;;;3.15;;
31210;SDS011;17836;50.948;3.946;2023-04-24T12:42:17;4.70;;;2.78;;
31210;SDS011;17836;50.948;3.946;2023-04-24T12:44:36;4.10;;;2.05;;
31210;SDS011;17836;50.948;3.946;2023-04-24T12:47:02;2.70;;;2.38;;
31210;SDS011;17836;50.948;3.946;2023-04-24T12:49:27;3.10;;;2.10;;
31210;SDS011;17836;50.948;3.946;2023-04-24T12:51:53;2.30;;;1.60;;
31210;SDS011;17836;50.948;3.946;2023-04-24T12:54:19;5.18;;;2.65;;
31210;SDS011;17836;50.948;3.946;2023-04-24T12:56:44;3.55;;;2.22;;
31210;SDS011;17836;50.948;3.946;2023-04-24T12:59:09;4.90;;;2.10;;
31210;SDS011;17836;50.948;3.946;2023-04-24T13:01:35;4.78;;;1.98;;
31210;SDS011;17836;50.948;3.946;2023-04-24T13:04:03;5.00;;;2.30;;
31210;SDS011;17836;50.948;3.946;2023-04-24T13:06:28;5.75;;;1.80;;
31210;SDS011;17836;50.948;3.946;2023-04-24T13:08:53;3.53;;;1.80;;
31210;SDS011;17836;50.948;3.946;2023-04-24T13:11:20;7.90;;;1.67;;
31210;SDS011;17836;50.948;3.946;2023-04-24T13:13:46;4.05;;;1.40;;
31210;SDS011;17836;50.948;3.946;2023-04-24T13:16:11;4.10;;;1.75;;
31210;SDS011;17836;50.948;3.946;2023-04-24T13:18:37;3.73;;;1.67;;
31210;SDS011;17836;50.948;3.946;2023-04-24T13:21:02;4.30;;;1.60;;
31210;SDS011;17836;50.948;3.946;2023-04-24T13:23:27;6.85;;;1.60;;
31210;SDS011;17836;50.948;3.946;2023-04-24T13:25:55;4.70;;;1.43;;
31210;SDS011;17836;50.948;3.946;2023-04-24T13:28:23;4.72;;;1.55;;
31210;SDS011;17836;50.948;3.946;2023-04-24T13:30:49;5.97;;;1.35;;
31210;SDS011;17836;50.948;3.946;2023-04-24T13:33:15;2.83;;;1.30;;
31210;SDS011;17836;50.948;3.946;2023-04-24T13:35:40;5.30;;;1.20;;
31210;SDS011;17836;50.948;3.946;2023-04-24T13:38:05;3.90;;;1.20;;
31210;SDS011;17836;50.948;3.946;2023-04-24T13:40:34;2.83;;;1.77;;
31210;SDS011;17836;50.948;3.946;2023-04-24T13:43:01;4.53;;;1.92;;
31210;SDS011;17836;50.948;3.946;2023-04-24T13:45:27;3.80;;;1.77;;
31210;SDS011;17836;50.948;3.946;2023-04-24T13:47:52;4.47;;;1.67;;
31210;SDS011;17836;50.948;3.946;2023-04-24T13:50:18;5.63;;;1.58;;
31210;SDS011;17836;50.948;3.946;2023-04-24T13:52:44;3.97;;;1.45;;
31210;SDS011;17836;50.948;3.946;2023-04-24T13:55:09;4.53;;;1.50;;
31210;SDS011;17836;50.948;3.946;2023-04-24T13:57:35;4.28;;;1.40;;
31210;SDS011;17836;50.948;3.946;2023-04-24T14:00:00;2.15;;;1.42;;
31210;SDS011;17836;50.948;3.946;2023-04-24T14:02:31;2.47;;;1.27;;
31210;SDS011;17836;50.948;3.946;2023-04-24T14:04:56;4.43;;;1.60;;
31210;SDS011;17836;50.948;3.946;2023-04-24T14:07:21;2.13;;;1.30;;
31210;SDS011;17836;50.948;3.946;2023-04-24T14:09:47;2.40;;;1.30;;
31210;SDS011;17836;50.948;3.946;2023-04-24T14:12:12;4.17;;;1.57;;
31210;SDS011;17836;50.948;3.946;2023-04-24T14:14:38;3.42;;;1.23;;
31210;SDS011;17836;50.948;3.946;2023-04-24T14:17:04;1.33;;;0.90;;
31210;SDS011;17836;50.948;3.946;2023-04-24T14:19:29;3.00;;;1.10;;
31210;SDS011;17836;50.948;3.946;2023-04-24T14:21:55;3.03;;;1.00;;
31210;SDS011;17836;50.948;3.946;2023-04-24T14:24:23;8.23;;;1.02;;
31210;SDS011;17836;50.948;3.946;2023-04-24T14:26:49;2.03;;;0.93;;
31210;SDS011;17836;50.948;3.946;2023-04-24T14:29:14;2.65;;;1.10;;
31210;SDS011;17836;50.948;3.946;2023-04-24T14:31:40;3.30;;;1.05;;
31210;SDS011;17836;50.948;3.946;2023-04-24T14:34:05;2.15;;;1.40;;
31210;SDS011;17836;50.948;3.946;2023-04-24T14:36:30;3.97;;;1.30;;